createdAt,value
2018-09-20T14:39:18.877Z,34.52
2018-09-20T14:41:47.433Z,34.11
2018-09-20T14:44:15.986Z,34.33
2018-09-20T14:46:44.529Z,34.26
2018-09-20T14:49:13.271Z,33.66
2018-09-20T14:51:41.913Z,32.78
2018-09-20T14:54:10.672Z,32.48
2018-09-20T14:56:39.373Z,32.72
2018-09-20T14:59:07.978Z,32.29
2018-09-20T15:01:36.568Z,33.06
2018-09-20T15:04:05.326Z,32.53
2018-09-20T15:06:33.957Z,32.63
2018-09-20T15:09:02.612Z,32.18
2018-09-20T15:11:31.477Z,31.51
2018-09-20T15:14:00.245Z,31.55
2018-09-20T15:16:28.999Z,31.77
2018-09-20T15:18:57.807Z,31.06
2018-09-20T15:21:26.543Z,30.35
2018-09-20T15:23:56.200Z,29.03
2018-09-20T15:26:24.948Z,27.02
2018-09-20T15:28:53.798Z,25.94
2018-09-20T15:31:22.349Z,23.89
2018-09-20T15:33:51.547Z,21.50
2018-09-20T15:36:20.169Z,19.29
2018-09-20T15:38:49.453Z,18.63
2018-09-20T15:41:18.029Z,18.54
2018-09-20T15:43:46.635Z,18.23
2018-09-20T15:46:15.433Z,18.42
2018-09-20T15:48:44.161Z,18.56
2018-09-20T15:51:15.185Z,18.19
2018-09-20T15:53:43.801Z,18.82
2018-09-20T15:56:12.723Z,19.60
2018-09-20T15:58:41.289Z,21.82
2018-09-20T16:01:10.982Z,22.93
2018-09-20T16:03:39.618Z,23.88
2018-09-20T16:06:08.324Z,26.32
2018-09-20T16:08:36.909Z,28.07
2018-09-20T16:11:05.468Z,29.29
2018-09-20T16:13:34.040Z,30.35
2018-09-20T16:16:02.840Z,29.90
2018-09-20T16:18:31.480Z,31.63
2018-09-20T16:21:00.056Z,32.38
2018-09-20T16:23:28.886Z,33.63
2018-09-20T16:25:57.619Z,36.68
2018-09-20T16:32:53.808Z,39.67
2018-09-20T16:35:35.452Z,47.31
2018-09-20T16:38:15.313Z,48.59
2018-09-20T16:40:46.207Z,49.62
2018-09-20T16:43:15.145Z,50.38
2018-09-20T16:45:43.717Z,51.30
2018-09-20T16:48:12.472Z,51.61
2018-09-20T16:50:43.173Z,52.21
2018-09-20T16:53:12.257Z,53.10
2018-09-20T16:55:40.786Z,53.23
2018-09-20T16:58:09.440Z,53.86
2018-09-20T17:00:38.014Z,54.38
2018-09-20T17:03:06.741Z,53.86
2018-09-20T17:05:35.259Z,55.43
2018-09-20T17:08:06.379Z,55.46
2018-09-20T17:10:35.070Z,55.52
2018-09-20T17:13:03.803Z,55.78
2018-09-20T17:15:33.205Z,55.44
2018-09-20T17:18:03.283Z,55.90
2018-09-20T17:20:31.960Z,56.23
2018-09-20T17:23:00.647Z,55.97
2018-09-20T17:25:30.729Z,56.55
2018-09-20T17:27:59.483Z,57.03
2018-09-20T17:30:28.111Z,57.08
2018-09-20T17:32:56.692Z,57.93
2018-09-20T17:35:25.760Z,58.10
2018-09-20T17:37:55.304Z,58.16
2018-09-20T17:40:25.658Z,58.32
2018-09-20T17:43:29.493Z,58.18
2018-09-20T17:45:58.129Z,58.86
2018-09-20T17:48:26.711Z,58.59
2018-09-20T17:50:55.912Z,58.77
2018-09-20T17:53:25.372Z,58.45
2018-09-20T17:55:54.716Z,58.29
2018-09-20T17:58:23.789Z,58.50
2018-09-20T18:00:52.434Z,58.76
2018-09-20T18:03:21.039Z,58.33
2018-09-20T18:05:49.612Z,58.77
2018-09-20T18:08:18.551Z,58.49
2018-09-20T18:10:47.353Z,58.32
2018-09-20T18:13:16.127Z,58.13
2018-09-20T18:15:44.726Z,57.93
2018-09-20T18:18:13.720Z,58.67
2018-09-20T18:20:42.326Z,59.52
2018-09-20T18:23:11.319Z,59.07
2018-09-20T18:25:40.118Z,59.03
2018-09-20T18:28:09.256Z,59.23
2018-09-20T18:30:37.856Z,59.71
2018-09-20T18:33:06.416Z,59.96
2018-09-20T18:35:35.117Z,60.52
2018-09-20T18:38:04.735Z,61.31
2018-09-20T18:40:33.344Z,61.36
2018-09-20T18:43:01.926Z,61.07
2018-09-20T18:45:30.481Z,61.21
2018-09-20T18:47:59.060Z,61.22
2018-09-20T18:50:27.653Z,61.85
2018-09-20T18:52:56.275Z,61.59
2018-09-20T18:55:24.867Z,61.89
2018-09-20T18:57:53.420Z,61.39
2018-09-20T19:00:22.009Z,62.49
2018-09-20T19:02:50.685Z,62.46
2018-09-20T19:05:19.744Z,62.13
2018-09-20T19:07:48.385Z,61.98
2018-09-20T19:10:16.977Z,61.50
2018-09-20T19:12:45.568Z,61.53
2018-09-20T19:15:14.132Z,61.34
2018-09-20T19:17:42.836Z,62.32
2018-09-20T19:20:11.410Z,61.49
2018-09-20T19:22:40.045Z,61.76
2018-09-20T19:25:08.652Z,61.76
2018-09-20T19:27:37.310Z,62.32
2018-09-20T19:30:07.038Z,62.49
2018-09-20T19:32:35.740Z,62.14
2018-09-20T19:35:04.407Z,61.91
2018-09-20T19:37:33.217Z,61.76
2018-09-20T19:40:01.801Z,62.34
2018-09-20T19:42:30.502Z,62.87
2018-09-20T19:44:59.061Z,63.58
2018-09-20T19:47:28.489Z,63.44
2018-09-20T19:49:57.129Z,63.17
2018-09-20T19:52:25.976Z,62.84
2018-09-20T19:54:54.702Z,63.50
2018-09-20T19:57:23.234Z,62.71
2018-09-20T19:59:51.865Z,63.87
2018-09-20T20:02:21.319Z,63.89
2018-09-20T20:04:49.939Z,63.20
2018-09-20T20:07:18.657Z,63.41
2018-09-20T20:09:47.237Z,62.45
2018-09-20T20:12:15.854Z,62.78
2018-09-20T20:14:44.405Z,63.14
2018-09-20T20:17:13.197Z,62.72
2018-09-20T20:19:41.883Z,63.43
2018-09-20T20:22:10.656Z,63.36
2018-09-20T20:24:39.217Z,63.59
2018-09-20T20:27:07.833Z,63.24
2018-09-20T20:29:36.411Z,63.02
2018-09-20T20:32:05.023Z,63.88
2018-09-20T20:34:33.636Z,64.16
2018-09-20T20:37:02.356Z,63.99
2018-09-20T20:39:30.988Z,63.70
2018-09-20T20:41:59.935Z,63.66
2018-09-20T20:44:29.051Z,63.72
2018-09-20T20:46:57.646Z,63.91
2018-09-20T20:49:26.437Z,63.75
2018-09-20T20:51:54.999Z,63.68
2018-09-20T20:54:23.723Z,63.83
2018-09-20T20:56:52.417Z,63.75
2018-09-20T20:59:21.019Z,64.04
2018-09-20T21:01:49.642Z,64.51
2018-09-20T21:04:18.232Z,64.52
2018-09-20T21:06:46.809Z,64.29
2018-09-20T21:09:15.405Z,64.37
2018-09-20T21:11:43.940Z,63.82
2018-09-20T21:14:12.489Z,64.03
2018-09-20T21:16:41.053Z,64.53
2018-09-20T21:19:09.834Z,64.13
2018-09-20T21:21:38.435Z,64.86
2018-09-20T21:24:07.003Z,65.31
2018-09-20T21:26:35.572Z,65.62
2018-09-20T21:29:04.202Z,65.63
2018-09-20T21:31:32.943Z,65.94
2018-09-20T21:34:01.534Z,66.10
2018-09-20T21:36:30.209Z,65.71
2018-09-20T21:38:59.579Z,66.00
2018-09-20T21:41:28.125Z,66.49
2018-09-20T21:43:56.753Z,66.22
2018-09-20T21:46:25.417Z,66.48
2018-09-20T21:48:54.009Z,66.62
2018-09-20T21:51:22.680Z,66.22
2018-09-20T21:53:51.238Z,66.65
2018-09-20T21:56:19.811Z,66.28
2018-09-20T21:58:48.411Z,67.10
2018-09-20T22:01:16.932Z,66.86
2018-09-20T22:03:45.496Z,66.85
2018-09-20T22:06:14.083Z,67.76
2018-09-20T22:08:42.662Z,67.11
2018-09-20T22:11:11.339Z,67.31
2018-09-20T22:13:39.911Z,67.48
2018-09-20T22:16:08.480Z,67.54
2018-09-20T22:21:39.433Z,67.60
2018-09-20T22:24:08.226Z,67.25
2018-09-20T22:26:36.884Z,66.77
2018-09-20T22:29:05.501Z,67.07
2018-09-20T22:31:34.090Z,66.82
2018-09-20T22:34:02.667Z,67.19
2018-09-20T22:36:31.200Z,66.63
2018-09-20T22:38:59.761Z,67.53
2018-09-20T22:41:28.584Z,67.65
2018-09-20T22:43:57.127Z,67.07
2018-09-20T22:46:25.763Z,67.22
2018-09-20T22:48:54.299Z,67.00
2018-09-20T22:51:22.833Z,67.47
2018-09-20T22:53:51.416Z,67.43
2018-09-20T22:56:19.982Z,67.42
2018-09-20T22:58:48.583Z,67.92
2018-09-20T23:01:17.682Z,68.11
2018-09-20T23:03:46.741Z,67.61
2018-09-20T23:06:15.307Z,68.52
2018-09-20T23:08:43.924Z,67.86
2018-09-20T23:11:17.121Z,67.70
2018-09-20T23:13:46.080Z,68.22
2018-09-20T23:16:14.631Z,67.95
2018-09-20T23:18:43.200Z,68.11
2018-09-20T23:21:11.992Z,67.80
2018-09-20T23:23:46.755Z,68.62
2018-09-20T23:26:15.376Z,68.36
2018-09-20T23:28:43.920Z,69.50
2018-09-20T23:31:13.680Z,69.28
2018-09-20T23:33:42.272Z,69.71
2018-09-20T23:36:10.852Z,69.37
2018-09-20T23:38:39.599Z,69.82
2018-09-20T23:41:08.181Z,69.20
2018-09-20T23:43:36.800Z,69.02
2018-09-20T23:46:05.521Z,69.45
2018-09-20T23:48:34.093Z,70.06
2018-09-20T23:51:02.687Z,69.07
2018-09-20T23:53:31.318Z,69.09
2018-09-20T23:55:59.888Z,69.59
2018-09-20T23:58:28.497Z,69.87
